Time;durP1;ratioP1;P1;durP2;ratioP2;P2;SDS_P1;SDS_P2;PMS_P1;PMS_P2;Temp;Humidity;BMP_temperature;BMP_pressure;BME280_temperature;BME280_humidity;BME280_pressure;Samples;Min_cycle;Max_cycle;Signal;HPM_P1;HPM_P2
2022/03/06 00:01:38;;;;;;;46.00;16.30;;;;;;;-1.41;79.84;100092.33;103497;1300;24212;-24
2022/03/06 00:04:04;;;;;;;33.70;13.60;;;;;;;-1.37;79.35;100097.67;103706;1300;22807;-30
2022/03/06 00:06:30;;;;;;;27.40;14.20;;;;;;;-1.43;79.77;100091.39;103427;1300;24317;-28
2022/03/06 00:08:56;;;;;;;31.60;12.40;;;;;;;-1.39;80.08;100090.10;103675;1300;24243;-27
2022/03/06 00:11:21;;;;;;;36.40;13.30;;;;;;;-1.41;80.17;100092.65;103531;1300;24212;-26
2022/03/06 00:13:47;;;;;;;33.50;12.70;;;;;;;-1.45;80.21;100092.21;103544;1300;24387;-31
2022/03/06 00:16:13;;;;;;;30.00;14.20;;;;;;;-1.47;79.92;100088.70;103553;1303;24310;-27
2022/03/06 00:18:39;;;;;;;34.50;13.90;;;;;;;-1.49;79.92;100088.30;103584;1300;24389;-27
2022/03/06 00:21:05;;;;;;;39.50;16.10;;;;;;;-1.49;80.01;100090.42;103501;1300;24233;-30
2022/03/06 00:23:31;;;;;;;26.40;11.20;;;;;;;-1.42;81.58;100088.02;103522;1299;22713;-30
2022/03/06 00:25:57;;;;;;;36.70;15.00;;;;;;;-1.32;81.36;100085.25;103589;1300;24217;-25
2022/03/06 00:28:22;;;;;;;35.20;15.20;;;;;;;-1.35;80.51;100083.88;103652;1300;24208;-26
2022/03/06 00:30:48;;;;;;;54.30;14.40;;;;;;;-1.39;80.53;100085.17;103568;1299;24351;-28
2022/03/06 00:33:14;;;;;;;36.70;14.60;;;;;;;-1.36;80.49;100086.25;103616;1300;22496;-28
2022/03/06 00:35:40;;;;;;;29.90;14.40;;;;;;;-1.36;81.16;100083.05;103700;1299;24237;-29
2022/03/06 00:38:05;;;;;;;36.40;13.70;;;;;;;-1.38;80.76;100081.98;103469;1302;24327;-25
2022/03/06 00:40:31;;;;;;;24.00;10.80;;;;;;;-1.41;80.96;100076.36;103464;1302;24235;-31
2022/03/06 00:42:57;;;;;;;18.00;9.70;;;;;;;-1.43;81.64;100081.76;103639;1300;24247;-25
2022/03/06 00:45:23;;;;;;;27.80;11.50;;;;;;;-1.42;81.85;100078.86;103578;1300;24217;-28
2022/03/06 00:47:50;;;;;;;29.30;11.50;;;;;;;-1.43;81.37;100076.66;103595;1300;22518;-27
2022/03/06 00:50:15;;;;;;;25.90;12.40;;;;;;;-1.48;81.69;100078.02;103532;1300;24198;-25
2022/03/06 00:52:41;;;;;;;34.70;13.30;;;;;;;-1.51;81.94;100078.94;103591;1300;24348;-30
2022/03/06 00:55:08;;;;;;;33.70;12.50;;;;;;;-1.52;81.78;100079.73;103581;1300;24359;-27
2022/03/06 00:57:33;;;;;;;28.10;12.40;;;;;;;-1.55;81.80;100079.78;103585;1300;24247;-29
2022/03/06 00:59:59;;;;;;;33.00;14.30;;;;;;;-1.55;81.81;100077.27;103576;1300;24218;-26
2022/03/06 01:02:26;;;;;;;98.60;45.50;;;;;;;-1.54;81.48;100079.85;103568;1300;24364;-26
2022/03/06 01:04:52;;;;;;;35.30;15.60;;;;;;;-1.52;81.01;100079.00;103576;1300;24244;-26
2022/03/06 01:07:17;;;;;;;29.40;14.30;;;;;;;-1.57;81.95;100077.58;103601;1300;22729;-26
2022/03/06 01:09:43;;;;;;;21.60;11.40;;;;;;;-1.57;82.30;100077.45;103584;1300;24332;-28
2022/03/06 01:12:11;;;;;;;41.00;13.70;;;;;;;-1.64;81.83;100074.73;103579;1300;24310;-30
2022/03/06 01:14:36;;;;;;;33.90;12.80;;;;;;;-1.60;81.73;100076.77;103552;1300;24445;-29
2022/03/06 01:17:02;;;;;;;35.80;11.70;;;;;;;-1.59;81.81;100078.97;103573;1300;22843;-26
2022/03/06 01:19:28;;;;;;;21.90;8.60;;;;;;;-1.57;82.50;100079.36;103512;1300;22707;-29
2022/03/06 01:21:54;;;;;;;32.50;10.80;;;;;;;-1.53;82.54;100075.09;103549;1300;24305;-29
2022/03/06 01:24:20;;;;;;;27.00;11.30;;;;;;;-1.49;82.28;100071.10;103615;1300;24258;-29
2022/03/06 01:26:46;;;;;;;33.60;13.70;;;;;;;-1.49;82.83;100069.69;103570;1301;24233;-29
2022/03/06 01:29:12;;;;;;;38.60;13.50;;;;;;;-1.47;82.24;100072.56;103501;1300;24374;-28
2022/03/06 01:31:38;;;;;;;20.40;11.40;;;;;;;-1.51;82.49;100065.94;103524;1303;24219;-29
2022/03/06 01:34:04;;;;;;;27.00;11.00;;;;;;;-1.54;82.33;100068.10;103568;1300;24333;-26
2022/03/06 01:36:31;;;;;;;17.60;9.90;;;;;;;-1.60;82.93;100069.20;103577;1300;24368;-29
2022/03/06 01:38:57;;;;;;;40.10;12.20;;;;;;;-1.61;83.04;100069.77;103399;1300;24194;-29
2022/03/06 01:41:23;;;;;;;39.10;13.00;;;;;;;-1.65;82.86;100068.15;103595;1300;24218;-25
2022/03/06 01:43:49;;;;;;;30.20;12.20;;;;;;;-1.64;82.45;100068.23;103512;1300;24301;-29
2022/03/06 01:46:15;;;;;;;27.30;11.90;;;;;;;-1.61;82.69;100069.29;103544;1300;24294;-28
2022/03/06 01:48:41;;;;;;;25.40;10.30;;;;;;;-1.64;82.83;100064.06;103575;1300;24498;-25
2022/03/06 01:51:07;;;;;;;18.70;9.40;;;;;;;-1.63;83.01;100062.73;103530;1301;24298;-27
2022/03/06 01:53:33;;;;;;;22.70;10.40;;;;;;;-1.63;82.82;100060.45;103568;1300;24248;-28
2022/03/06 01:55:59;;;;;;;25.60;10.60;;;;;;;-1.62;82.56;100059.17;103557;1300;24289;-26
2022/03/06 01:58:25;;;;;;;27.10;11.90;;;;;;;-1.65;82.47;100061.29;103536;1300;24325;-28
2022/03/06 02:00:51;;;;;;;22.60;9.90;;;;;;;-1.73;83.73;100062.30;103566;1300;24214;-25
2022/03/06 02:03:18;;;;;;;29.10;11.20;;;;;;;-1.77;84.44;100059.45;103466;1302;22658;-29
2022/03/06 02:05:44;;;;;;;31.90;11.20;;;;;;;-1.81;84.45;100062.70;103510;1300;24182;-30
2022/03/06 02:08:10;;;;;;;29.40;12.60;;;;;;;-1.86;84.63;100064.98;103600;1301;24344;-30
2022/03/06 02:10:37;;;;;;;24.60;11.60;;;;;;;-1.82;84.31;100065.23;103558;1300;24301;-29
2022/03/06 02:13:04;;;;;;;38.70;15.30;;;;;;;-1.85;84.43;100066.32;103547;1300;22714;-30
2022/03/06 02:15:30;;;;;;;30.60;12.60;;;;;;;-1.86;84.10;100065.84;103489;1303;24292;-29
2022/03/06 02:17:56;;;;;;;31.70;11.60;;;;;;;-1.90;84.00;100063.42;103569;1300;24256;-30
2022/03/06 02:20:24;;;;;;;28.10;10.30;;;;;;;-1.92;84.55;100062.02;103629;1300;24303;-29
2022/03/06 02:22:52;;;;;;;26.40;11.40;;;;;;;-1.89;84.34;100062.50;103557;1300;24399;-28
2022/03/06 02:25:19;;;;;;;26.60;11.20;;;;;;;-1.86;84.24;100063.88;103614;1300;24250;-26
2022/03/06 02:27:46;;;;;;;27.70;10.80;;;;;;;-1.83;83.78;100066.02;103573;1300;24447;-29
2022/03/06 02:30:15;;;;;;;26.00;9.30;;;;;;;-1.86;83.54;100065.17;103484;1302;24188;-27
2022/03/06 02:32:43;;;;;;;28.80;9.80;;;;;;;-1.84;83.43;100064.31;103506;1303;24260;-25
2022/03/06 02:35:09;;;;;;;29.60;10.40;;;;;;;-1.86;83.40;100063.52;103609;1300;22963;-26
2022/03/06 02:37:35;;;;;;;20.10;7.60;;;;;;;-1.86;82.65;100064.08;103635;1300;25355;-28
2022/03/06 02:40:04;;;;;;;39.60;11.10;;;;;;;-1.87;82.83;100063.77;103511;1302;24239;-28
2022/03/06 02:42:32;;;;;;;18.30;8.30;;;;;;;-1.84;82.62;100064.11;103448;1300;22508;-27
2022/03/06 02:44:58;;;;;;;19.60;7.90;;;;;;;-1.81;82.80;100064.98;103510;1300;24218;-26
2022/03/06 02:47:25;;;;;;;22.40;10.70;;;;;;;-1.75;83.46;100059.65;103583;1300;24373;-30
2022/03/06 02:49:51;;;;;;;22.20;8.60;;;;;;;-1.67;82.73;100064.36;103510;1301;24263;-30
2022/03/06 02:52:18;;;;;;;21.00;8.70;;;;;;;-1.70;82.23;100064.94;103533;1300;24605;-27
2022/03/06 02:54:44;;;;;;;19.10;9.30;;;;;;;-1.70;82.35;100062.67;103621;1300;24205;-26
2022/03/06 02:57:12;;;;;;;25.00;10.80;;;;;;;-1.69;82.10;100064.66;103576;1300;24386;-28
2022/03/06 02:59:38;;;;;;;15.70;7.20;;;;;;;-1.67;81.84;100060.73;103546;1300;24360;-26
2022/03/06 03:02:05;;;;;;;29.20;11.10;;;;;;;-1.68;81.85;100055.16;103603;1300;22654;-26
2022/03/06 03:04:32;;;;;;;26.00;9.70;;;;;;;-1.73;81.43;100056.91;103463;1300;24221;-26
2022/03/06 03:06:58;;;;;;;16.00;8.30;;;;;;;-1.81;81.76;100056.95;103571;1300;24364;-26
2022/03/06 03:09:25;;;;;;;21.60;10.90;;;;;;;-1.80;81.91;100053.52;103536;1300;22499;-29
2022/03/06 03:11:52;;;;;;;15.90;9.20;;;;;;;-1.81;81.79;100054.97;103535;1300;22636;-29
2022/03/06 03:14:18;;;;;;;25.70;13.30;;;;;;;-1.78;82.58;100059.85;103589;1300;24285;-25
2022/03/06 03:16:45;;;;;;;30.70;12.10;;;;;;;-1.66;81.65;100060.48;103507;1302;22574;-28
2022/03/06 03:19:11;;;;;;;28.90;9.80;;;;;;;-1.62;81.02;100059.02;103464;1300;24215;-25
2022/03/06 03:21:37;;;;;;;24.30;11.20;;;;;;;-1.68;81.29;100061.15;103544;1300;24243;-27
2022/03/06 03:24:03;;;;;;;26.10;12.50;;;;;;;-1.64;80.66;100056.14;103567;1300;24232;-27
2022/03/06 03:26:29;;;;;;;18.90;10.60;;;;;;;-1.66;80.23;100056.28;103554;1300;22794;-27
2022/03/06 03:28:56;;;;;;;18.60;10.40;;;;;;;-1.75;81.06;100056.37;103539;1300;22782;-31
2022/03/06 03:31:22;;;;;;;16.40;8.80;;;;;;;-1.66;80.23;100057.98;103585;1300;24188;-26
2022/03/06 03:33:48;;;;;;;20.40;9.90;;;;;;;-1.64;79.75;100059.09;103582;1300;24367;-30
2022/03/06 03:36:15;;;;;;;22.00;10.20;;;;;;;-1.65;79.63;100059.19;103527;1300;24307;-25
2022/03/06 03:38:41;;;;;;;20.80;9.00;;;;;;;-1.69;79.77;100056.64;103662;1303;24645;-25
2022/03/06 03:41:07;;;;;;;20.40;10.30;;;;;;;-1.75;79.75;100057.77;103663;1300;22506;-25
2022/03/06 03:43:34;;;;;;;19.30;9.10;;;;;;;-1.70;79.58;100057.02;103613;1300;24673;-26
2022/03/06 03:46:01;;;;;;;20.10;10.40;;;;;;;-1.61;78.69;100057.33;103632;1300;24323;-29
2022/03/06 03:48:28;;;;;;;17.00;10.20;;;;;;;-1.60;78.61;100061.30;103472;1300;24227;-26
2022/03/06 03:50:54;;;;;;;16.60;8.60;;;;;;;-1.65;78.67;100062.69;103577;1300;22508;-30
2022/03/06 03:53:20;;;;;;;18.20;9.30;;;;;;;-1.67;79.15;100059.80;103567;1300;24258;-25
2022/03/06 03:55:46;;;;;;;17.00;7.80;;;;;;;-1.65;78.61;100064.59;103567;1302;24329;-25
2022/03/06 03:58:12;;;;;;;24.40;12.10;;;;;;;-1.71;79.23;100064.84;103560;1302;24238;-25
2022/03/06 04:00:39;;;;;;;22.10;9.80;;;;;;;-1.66;78.95;100063.45;103575;1300;24226;-26
2022/03/06 04:03:05;;;;;;;17.70;10.70;;;;;;;-1.65;78.69;100064.63;103568;1300;24307;-26
2022/03/06 04:05:31;;;;;;;21.90;11.10;;;;;;;-1.66;78.64;100063.11;103555;1300;24189;-27
2022/03/06 04:07:56;;;;;;;20.80;10.40;;;;;;;-1.67;78.67;100063.89;103564;1300;24317;-30
2022/03/06 04:10:22;;;;;;;21.90;11.00;;;;;;;-1.67;78.61;100059.30;103550;1300;22553;-25
2022/03/06 04:12:48;;;;;;;22.20;11.90;;;;;;;-1.64;78.45;100062.12;103156;1300;550019;-30
2022/03/06 04:15:14;;;;;;;25.30;11.10;;;;;;;-1.63;78.00;100063.05;103570;1300;22845;-26
2022/03/06 04:17:40;;;;;;;21.00;9.10;;;;;;;-1.63;77.65;100064.11;103478;1300;24249;-26
2022/03/06 04:20:07;;;;;;;30.20;13.60;;;;;;;-1.53;75.34;100062.61;103560;1300;24247;-26
2022/03/06 04:22:33;;;;;;;21.10;10.50;;;;;;;-1.62;76.12;100070.59;103550;1300;24233;-27
2022/03/06 04:24:59;;;;;;;23.40;11.90;;;;;;;-1.61;76.61;100068.20;103555;1300;24211;-29
2022/03/06 04:27:25;;;;;;;22.50;8.40;;;;;;;-1.60;76.68;100067.48;103563;1302;24301;-25
2022/03/06 04:29:51;;;;;;;19.30;10.30;;;;;;;-1.70;77.41;100066.17;103547;1300;24310;-25
2022/03/06 04:32:17;;;;;;;23.70;9.40;;;;;;;-1.69;75.61;100065.96;103497;1300;24234;-28
2022/03/06 04:34:43;;;;;;;16.60;7.40;;;;;;;-1.67;75.82;100063.52;103589;1300;24373;-25
2022/03/06 04:37:08;;;;;;;16.10;8.00;;;;;;;-1.63;75.75;100061.48;103563;1300;24352;-30
2022/03/06 04:39:34;;;;;;;16.60;7.40;;;;;;;-1.68;74.74;100061.80;103591;1302;24264;-26
2022/03/06 04:42:01;;;;;;;11.30;6.30;;;;;;;-1.67;73.87;100062.81;103522;1302;24411;-24
2022/03/06 04:44:28;;;;;;;14.80;8.80;;;;;;;-1.60;74.43;100062.90;103568;1300;22896;-28
2022/03/06 04:46:53;;;;;;;26.00;10.70;;;;;;;-1.48;73.89;100057.64;103502;1300;22676;-30
2022/03/06 04:49:19;;;;;;;28.20;9.60;;;;;;;-1.49;73.29;100058.09;103510;1300;24250;-26
2022/03/06 04:51:45;;;;;;;19.00;10.60;;;;;;;-1.36;71.73;100055.86;103564;1300;24191;-25
2022/03/06 04:54:11;;;;;;;13.80;8.50;;;;;;;-1.38;71.42;100057.73;103536;1302;24409;-28
2022/03/06 04:56:37;;;;;;;16.80;9.40;;;;;;;-1.47;71.65;100057.23;103556;1300;24362;-28
2022/03/06 04:59:03;;;;;;;12.10;8.20;;;;;;;-1.48;71.81;100060.67;103616;1300;24229;-25
2022/03/06 05:01:29;;;;;;;13.70;7.10;;;;;;;-1.54;72.25;100062.98;103513;1300;24234;-26
2022/03/06 05:03:56;;;;;;;9.00;6.20;;;;;;;-1.57;72.25;100064.79;103595;1300;24245;-27
2022/03/06 05:06:23;;;;;;;11.20;6.50;;;;;;;-1.56;72.37;100066.63;103446;1300;24249;-30
2022/03/06 05:08:48;;;;;;;11.10;6.30;;;;;;;-1.61;72.38;100065.92;103573;1300;24244;-24
2022/03/06 05:11:14;;;;;;;22.60;8.30;;;;;;;-1.61;72.39;100070.31;103564;1302;22512;-29
2022/03/06 05:13:40;;;;;;;19.60;9.30;;;;;;;-1.62;72.06;100068.99;103558;1300;24259;-26
2022/03/06 05:16:06;;;;;;;15.80;7.10;;;;;;;-1.65;72.28;100069.16;103561;1300;24368;-26
2022/03/06 05:18:32;;;;;;;15.80;8.60;;;;;;;-1.66;72.96;100064.64;103554;1300;23032;-26
2022/03/06 05:20:58;;;;;;;11.60;5.50;;;;;;;-1.72;73.47;100069.28;103556;1302;24194;-29
2022/03/06 05:23:24;;;;;;;15.90;8.10;;;;;;;-1.75;73.36;100073.91;103561;1300;22502;-29
2022/03/06 05:25:50;;;;;;;9.60;5.70;;;;;;;-1.71;72.61;100078.14;103543;1301;24420;-26
2022/03/06 05:28:16;;;;;;;10.70;6.70;;;;;;;-1.61;72.85;100078.22;103570;1300;24225;-26
2022/03/06 05:30:42;;;;;;;14.20;7.60;;;;;;;-1.50;72.09;100077.66;103594;1300;24219;-27
2022/03/06 05:33:08;;;;;;;18.00;10.00;;;;;;;-1.45;70.88;100079.80;103535;1300;24426;-30
2022/03/06 05:35:33;;;;;;;19.80;9.90;;;;;;;-1.38;69.78;100080.91;103567;1300;24182;-30
2022/03/06 05:37:59;;;;;;;23.80;10.30;;;;;;;-1.40;68.80;100079.27;103575;1300;22515;-30
2022/03/06 05:40:25;;;;;;;17.00;8.10;;;;;;;-1.32;67.18;100073.63;103569;1300;24192;-29
2022/03/06 05:42:51;;;;;;;16.80;8.30;;;;;;;-1.34;66.64;100077.63;103570;1300;24346;-26
2022/03/06 05:45:17;;;;;;;24.30;8.90;;;;;;;-1.39;67.15;100080.80;103557;1300;24218;-30
2022/03/06 05:47:43;;;;;;;14.00;7.10;;;;;;;-1.46;67.04;100084.74;103583;1300;24294;-28
2022/03/06 05:50:10;;;;;;;15.20;6.50;;;;;;;-1.48;67.80;100089.84;103556;1300;24247;-28
2022/03/06 05:52:36;;;;;;;15.70;8.90;;;;;;;-1.44;68.95;100090.92;103577;1301;22599;-30
2022/03/06 05:55:03;;;;;;;17.10;9.80;;;;;;;-1.35;69.06;100089.13;103447;1302;22782;-30
2022/03/06 05:57:30;;;;;;;19.40;9.40;;;;;;;-1.34;68.83;100083.64;103589;1300;24214;-29
2022/03/06 05:59:56;;;;;;;20.70;10.30;;;;;;;-1.36;68.21;100085.32;103584;1300;22691;-29
2022/03/06 06:02:23;;;;;;;12.90;7.80;;;;;;;-1.38;67.64;100089.35;103578;1300;24224;-26
2022/03/06 06:04:50;;;;;;;10.50;6.90;;;;;;;-1.41;68.03;100094.43;103525;1302;25028;-26
2022/03/06 06:07:16;;;;;;;13.10;8.50;;;;;;;-1.38;68.22;100091.77;103526;1302;24409;-26
2022/03/06 06:09:42;;;;;;;9.80;5.50;;;;;;;-1.29;68.17;100093.95;103583;1300;24349;-30
2022/03/06 06:12:09;;;;;;;7.00;5.00;;;;;;;-1.32;67.77;100095.98;103598;1300;24215;-29
2022/03/06 06:14:35;;;;;;;9.80;5.20;;;;;;;-1.29;68.16;100089.61;103514;1302;24345;-31
2022/03/06 06:17:00;;;;;;;13.00;6.40;;;;;;;-1.25;67.71;100086.70;103533;1300;24249;-25
2022/03/06 06:19:26;;;;;;;12.50;6.80;;;;;;;-1.23;67.92;100088.98;103558;1300;24215;-29
2022/03/06 06:21:52;;;;;;;10.10;6.30;;;;;;;-1.18;68.09;100092.36;103538;1300;22688;-26
2022/03/06 06:24:18;;;;;;;13.40;9.60;;;;;;;-1.12;68.66;100095.49;103565;1300;24298;-27
2022/03/06 06:26:47;;;;;;;15.30;10.40;;;;;;;-1.00;67.81;100101.16;103599;1300;24234;-27
2022/03/06 06:29:13;;;;;;;18.00;11.40;;;;;;;-1.10;67.84;100101.85;103647;1300;22698;-27
2022/03/06 06:31:40;;;;;;;19.70;11.40;;;;;;;-1.11;68.06;100102.23;103536;1300;24414;-25
2022/03/06 06:34:06;;;;;;;27.40;8.80;;;;;;;-1.10;68.47;100099.55;103607;1300;22603;-29
2022/03/06 06:36:32;;;;;;;11.80;6.60;;;;;;;-1.06;67.06;100097.52;103591;1300;24273;-29
2022/03/06 06:38:59;;;;;;;10.50;6.10;;;;;;;-0.99;64.77;100098.10;103612;1300;24227;-26
2022/03/06 06:41:24;;;;;;;13.00;7.70;;;;;;;-0.93;63.39;100098.73;103596;1300;24209;-27
2022/03/06 06:43:51;;;;;;;11.70;6.30;;;;;;;-0.89;61.92;100097.59;103581;1300;22507;-29
2022/03/06 06:46:17;;;;;;;14.40;6.80;;;;;;;-0.88;58.95;100092.76;103612;1300;24298;-26
2022/03/06 06:48:43;;;;;;;10.30;6.50;;;;;;;-0.83;57.78;100093.09;103564;1300;24349;-26
2022/03/06 06:51:09;;;;;;;15.10;8.20;;;;;;;-0.77;56.88;100090.40;103522;1300;24364;-26
2022/03/06 06:53:36;;;;;;;30.00;5.70;;;;;;;-0.68;58.12;100091.17;103563;1300;24263;-30
2022/03/06 06:56:02;;;;;;;35.60;12.40;;;;;;;-0.46;61.84;100090.34;103599;1300;24215;-25
2022/03/06 06:58:28;;;;;;;39.90;15.70;;;;;;;-0.34;58.22;100091.95;103597;1300;24388;-28
2022/03/06 07:00:54;;;;;;;24.30;10.00;;;;;;;-0.17;60.18;100089.47;103558;1300;24238;-30
2022/03/06 07:03:20;;;;;;;46.70;18.70;;;;;;;-0.09;57.59;100086.27;103486;1300;22494;-29
2022/03/06 07:05:47;;;;;;;10.70;6.30;;;;;;;0.08;59.66;100083.64;103577;1300;24302;-28
2022/03/06 07:08:13;;;;;;;7.00;4.60;;;;;;;0.19;58.11;100089.48;103524;1300;24289;-26
2022/03/06 07:10:39;;;;;;;5.00;3.60;;;;;;;0.13;57.67;100094.30;103527;1300;24312;-29
2022/03/06 07:13:05;;;;;;;324.00;176.70;;;;;;;0.17;58.39;100091.76;103602;1300;24237;-25
2022/03/06 07:15:32;;;;;;;71.30;33.90;;;;;;;0.26;57.62;100092.71;103558;1300;24252;-25
2022/03/06 07:17:59;;;;;;;18.30;9.30;;;;;;;0.28;56.97;100092.36;103619;1300;22890;-26
2022/03/06 07:20:27;;;;;;;33.20;21.30;;;;;;;0.37;57.83;100092.71;103536;1302;24324;-25
2022/03/06 07:22:53;;;;;;;94.20;38.40;;;;;;;0.51;57.74;100093.29;103563;1300;24215;-25
2022/03/06 07:25:19;;;;;;;28.50;14.10;;;;;;;0.60;57.15;100094.16;103563;1302;24352;-31
2022/03/06 07:27:46;;;;;;;25.10;11.10;;;;;;;0.64;55.57;100093.65;103554;1300;22500;-29
2022/03/06 07:30:12;;;;;;;36.10;16.50;;;;;;;0.88;56.12;100090.08;103635;1300;24333;-28
2022/03/06 07:32:44;;;;;;;32.40;16.50;;;;;;;1.15;55.89;100084.54;103590;1300;24360;-25
2022/03/06 07:35:11;;;;;;;53.90;24.40;;;;;;;1.39;55.65;100083.67;103586;1300;25218;-29
2022/03/06 07:37:37;;;;;;;24.70;9.60;;;;;;;1.60;54.07;100080.27;103604;1300;24188;-26
2022/03/06 07:40:03;;;;;;;13.70;6.00;;;;;;;1.75;52.26;100079.74;103594;1300;22689;-26
2022/03/06 07:42:30;;;;;;;26.40;16.30;;;;;;;1.84;51.22;100079.69;103514;1300;24222;-30
2022/03/06 07:44:57;;;;;;;42.00;22.80;;;;;;;1.93;51.59;100080.39;103515;1300;24291;-29
2022/03/06 07:47:23;;;;;;;22.30;11.30;;;;;;;1.96;51.71;100079.46;103516;1300;24247;-28
2022/03/06 07:49:50;;;;;;;28.40;9.10;;;;;;;2.15;52.09;100075.93;103514;1303;24437;-25
2022/03/06 07:52:16;;;;;;;15.90;7.80;;;;;;;2.23;50.72;100074.05;103571;1300;24218;-25
2022/03/06 07:54:42;;;;;;;4.50;3.30;;;;;;;2.44;50.45;100076.37;103510;1300;24189;-27
2022/03/06 07:57:07;;;;;;;27.00;14.10;;;;;;;2.82;51.71;100068.77;103516;1300;22745;-26
2022/03/06 07:59:34;;;;;;;44.00;20.20;;;;;;;2.88;50.91;100073.57;103548;1300;24447;-30
2022/03/06 08:02:00;;;;;;;18.20;11.00;;;;;;;3.03;50.64;100074.80;103601;1300;24192;-30
2022/03/06 08:04:26;;;;;;;7.10;5.10;;;;;;;3.03;48.91;100074.36;103609;1300;24344;-35
2022/03/06 08:06:53;;;;;;;15.30;10.20;;;;;;;3.40;51.02;100072.77;103619;1300;24310;-27
2022/03/06 08:09:19;;;;;;;34.70;18.30;;;;;;;3.48;48.61;100072.95;103565;1300;24200;-28
2022/03/06 08:11:45;;;;;;;10.20;5.70;;;;;;;3.59;46.86;100070.45;103550;1300;24411;-27
2022/03/06 08:14:11;;;;;;;13.90;8.30;;;;;;;2.72;45.73;100071.20;103575;1300;24464;-29
2022/03/06 08:16:38;;;;;;;11.10;5.00;;;;;;;2.72;46.68;100070.54;103459;1302;24227;-28
2022/03/06 08:19:04;;;;;;;6.60;5.20;;;;;;;3.27;48.02;100071.95;103574;1300;24365;-28
2022/03/06 08:21:30;;;;;;;10.00;6.20;;;;;;;2.98;45.06;100076.08;103612;1302;24272;-28
2022/03/06 08:23:56;;;;;;;6.80;5.80;;;;;;;2.99;46.36;100068.52;103418;1301;24467;-27
2022/03/06 08:26:23;;;;;;;6.90;4.70;;;;;;;3.35;46.58;100066.84;103687;1300;24291;-27
2022/03/06 08:28:50;;;;;;;6.70;4.30;;;;;;;2.98;44.46;100067.77;103477;1301;24179;-25
2022/03/06 08:31:16;;;;;;;4.40;3.60;;;;;;;3.08;46.50;100066.23;103503;1300;22506;-28
2022/03/06 08:33:41;;;;;;;7.20;5.20;;;;;;;3.51;47.71;100063.83;103522;1302;24304;-28
2022/03/06 08:36:07;;;;;;;5.30;3.70;;;;;;;3.83;45.72;100067.96;103574;1300;24237;-26
2022/03/06 08:38:33;;;;;;;3.70;2.80;;;;;;;4.01;44.06;100067.24;103552;1300;22631;-25
2022/03/06 08:40:59;;;;;;;7.10;4.10;;;;;;;3.79;42.47;100065.97;103598;1300;24213;-25
2022/03/06 08:43:26;;;;;;;14.30;7.50;;;;;;;3.95;45.05;100058.13;103530;1302;24367;-29
2022/03/06 08:45:53;;;;;;;7.70;5.20;;;;;;;4.34;44.44;100054.78;103565;1300;24292;-25
2022/03/06 08:48:21;;;;;;;10.30;5.90;;;;;;;4.32;43.04;100055.89;103545;1302;24418;-25
2022/03/06 08:50:49;;;;;;;41.00;15.30;;;;;;;4.51;44.35;100054.70;103616;1300;22747;-28
2022/03/06 08:53:17;;;;;;;11.00;6.60;;;;;;;4.76;43.03;100050.23;103656;1300;24195;-30
2022/03/06 08:55:42;;;;;;;10.60;5.90;;;;;;;4.84;42.88;100048.95;103680;1300;24210;-27
2022/03/06 08:58:08;;;;;;;10.50;6.80;;;;;;;5.06;42.92;100050.00;103617;1302;24234;-28
2022/03/06 09:00:34;;;;;;;6.70;5.90;;;;;;;4.93;42.55;100049.89;103521;1301;22510;-25
2022/03/06 09:03:02;;;;;;;9.80;5.80;;;;;;;5.26;42.18;100049.23;103569;1302;24253;-30
2022/03/06 09:05:28;;;;;;;7.90;5.70;;;;;;;5.13;41.68;100053.34;103539;1300;24225;-29
2022/03/06 09:07:56;;;;;;;7.70;5.50;;;;;;;4.91;42.28;100055.79;103616;1300;24401;-25
2022/03/06 09:10:23;;;;;;;9.10;4.30;;;;;;;4.62;41.93;100059.17;103555;1300;24225;-25
2022/03/06 09:12:49;;;;;;;12.10;5.70;;;;;;;4.61;42.39;100055.16;103565;1300;24211;-25
2022/03/06 09:15:15;;;;;;;34.10;10.90;;;;;;;4.45;42.49;100058.24;103471;1300;22496;-28
2022/03/06 09:17:41;;;;;;;32.60;9.50;;;;;;;4.61;42.85;100056.77;103628;1300;24265;-25
2022/03/06 09:20:07;;;;;;;25.50;10.00;;;;;;;4.45;41.97;100061.27;103608;1300;24287;-30
2022/03/06 09:22:34;;;;;;;6.60;4.90;;;;;;;3.89;42.49;100064.37;103558;1300;24468;-30
2022/03/06 09:24:59;;;;;;;9.40;6.50;;;;;;;3.93;43.15;100065.25;103574;1300;24455;-25
2022/03/06 09:27:26;;;;;;;16.30;7.40;;;;;;;4.06;42.93;100064.42;103523;1300;24311;-25
2022/03/06 09:29:51;;;;;;;11.60;7.10;;;;;;;4.24;43.29;100058.42;103503;1302;24210;-24
2022/03/06 09:32:17;;;;;;;9.00;5.70;;;;;;;4.61;43.04;100050.53;103524;1300;24297;-28
2022/03/06 09:34:43;;;;;;;7.40;6.40;;;;;;;4.31;42.77;100051.89;103525;1300;24309;-28
2022/03/06 09:37:09;;;;;;;12.60;6.50;;;;;;;4.17;42.82;100052.45;103522;1301;24211;-26
2022/03/06 09:39:35;;;;;;;21.40;9.80;;;;;;;3.82;43.67;100059.37;103566;1300;22595;-25
2022/03/06 09:42:01;;;;;;;15.20;7.80;;;;;;;3.94;42.73;100058.98;103438;1302;24196;-26
2022/03/06 09:44:27;;;;;;;41.80;14.10;;;;;;;3.43;43.94;100060.50;103620;1300;24244;-25
2022/03/06 09:46:56;;;;;;;89.90;47.30;;;;;;;3.63;44.52;100060.64;103538;1300;24381;-27
2022/03/06 09:49:22;;;;;;;42.50;25.90;;;;;;;3.71;44.21;100062.60;103572;1300;23867;-24
2022/03/06 09:51:48;;;;;;;11.50;8.00;;;;;;;3.59;43.66;100062.95;103561;1300;24269;-25
2022/03/06 09:54:13;;;;;;;9.60;5.90;;;;;;;3.06;43.21;100066.90;103547;1300;24247;-25
2022/03/06 09:56:40;;;;;;;13.00;7.60;;;;;;;2.84;44.73;100064.85;103532;1302;24336;-25
2022/03/06 09:59:06;;;;;;;19.70;8.10;;;;;;;2.89;45.67;100063.73;103566;1302;24215;-25
2022/03/06 10:01:32;;;;;;;14.40;6.50;;;;;;;2.94;45.92;100064.06;103560;1300;22792;-26
2022/03/06 10:03:59;;;;;;;12.20;7.40;;;;;;;2.96;45.48;100068.61;103573;1302;24258;-27
2022/03/06 10:06:25;;;;;;;18.40;7.60;;;;;;;3.19;45.36;100069.34;103560;1300;22495;-29
2022/03/06 10:08:58;;;;;;;13.90;8.00;;;;;;;2.61;44.58;100070.36;103496;1300;24287;-28
2022/03/06 10:11:27;;;;;;;9.40;6.50;;;;;;;2.37;45.12;100069.56;103630;1300;22626;-28
2022/03/06 10:13:53;;;;;;;20.20;12.00;;;;;;;2.51;46.75;100065.38;103560;1303;24205;-28
2022/03/06 10:16:20;;;;;;;47.20;22.50;;;;;;;2.99;45.32;100061.65;103596;1303;24307;-25
2022/03/06 10:18:50;;;;;;;41.70;14.00;;;;;;;2.97;45.14;100057.95;103585;1303;24189;-28
2022/03/06 10:21:19;;;;;;;26.10;15.60;;;;;;;3.04;44.77;100059.77;103541;1302;22506;-25
2022/03/06 10:23:47;;;;;;;10.60;6.70;;;;;;;2.91;45.71;100057.05;103586;1301;24450;-28
2022/03/06 10:26:15;;;;;;;21.60;13.70;;;;;;;2.92;45.84;100057.45;103532;1303;24259;-25
2022/03/06 10:28:43;;;;;;;29.40;13.40;;;;;;;2.80;45.55;100057.94;103598;1301;24179;-28
2022/03/06 10:31:09;;;;;;;16.30;10.90;;;;;;;2.75;45.51;100053.75;103533;1300;24341;-28
2022/03/06 10:33:35;;;;;;;9.20;6.40;;;;;;;2.67;45.87;100054.67;103567;1300;24339;-28
2022/03/06 10:36:02;;;;;;;15.80;9.00;;;;;;;2.75;46.50;100055.73;103477;1302;24376;-28
2022/03/06 10:38:30;;;;;;;14.40;9.30;;;;;;;2.90;46.15;100056.46;103618;1303;24362;-28
2022/03/06 10:40:58;;;;;;;11.90;7.80;;;;;;;2.72;46.59;100055.65;103570;1302;24312;-25
2022/03/06 10:43:27;;;;;;;15.10;10.20;;;;;;;2.61;46.81;100050.41;103643;1302;22551;-25
2022/03/06 10:46:01;;;;;;;15.00;9.20;;;;;;;2.72;46.79;100049.40;103521;1302;24260;-25
2022/03/06 10:48:26;;;;;;;18.20;10.10;;;;;;;2.45;46.98;100048.91;103591;1302;23918;-29
2022/03/06 10:50:58;;;;;;;13.20;8.50;;;;;;;2.47;46.81;100045.02;103578;1303;24404;-25
2022/03/06 10:53:25;;;;;;;17.20;8.10;;;;;;;2.24;47.66;100046.27;103584;1302;24390;-28
2022/03/06 10:55:52;;;;;;;21.40;8.80;;;;;;;2.25;47.65;100043.14;103516;1300;24292;-25
2022/03/06 10:58:18;;;;;;;25.30;14.50;;;;;;;2.27;47.78;100039.27;103507;1301;24252;-28
2022/03/06 11:00:45;;;;;;;16.40;9.50;;;;;;;2.29;47.80;100040.15;103585;1302;24319;-30
2022/03/06 11:03:13;;;;;;;19.80;9.70;;;;;;;2.18;48.80;100042.13;103604;1301;24180;-27
2022/03/06 11:05:42;;;;;;;17.60;7.80;;;;;;;2.33;48.68;100038.23;103561;1300;24197;-25